Time;durP1;ratioP1;P1;durP2;ratioP2;P2;SDS_P1;SDS_P2;PMS_P1;PMS_P2;Temp;Humidity;BMP_temperature;BMP_pressure;BME280_temperature;BME280_humidity;BME280_pressure;Samples;Min_cycle;Max_cycle;Signal;HPM_P1;HPM_P2
2022/07/31 00:00:31;;;;;;;1.40;1.40;;;24.80;63.00;;;;;;5087046;27;43988;-71
2022/07/31 00:03:03;;;;;;;1.57;1.53;;;24.80;63.50;;;;;;5086929;27;44045;-69
2022/07/31 00:05:31;;;;;;;1.20;1.20;;;24.80;63.40;;;;;;5087173;27;44010;-69
2022/07/31 00:08:12;;;;;;;1.30;1.30;;;25.00;63.20;;;;;;5087315;27;43911;-69
2022/07/31 00:10:40;;;;;;;1.20;1.20;;;25.10;62.70;;;;;;5068413;27;46350;-69
2022/07/31 00:13:08;;;;;;;1.50;1.50;;;25.20;62.30;;;;;;5072017;28;43983;-69
2022/07/31 00:15:37;;;;;;;1.50;1.50;;;25.20;62.00;;;;;;5090688;27;43351;-69
2022/07/31 00:18:07;;;;;;;1.63;1.23;;;25.20;62.10;;;;;;5090743;27;43936;-69
2022/07/31 00:20:35;;;;;;;1.30;1.30;;;25.10;62.60;;;;;;5090353;27;44009;-69
2022/07/31 00:23:05;;;;;;;1.50;1.50;;;25.00;62.70;;;;;;5090332;27;43937;-68
2022/07/31 00:25:34;;;;;;;1.30;1.30;;;25.00;62.70;;;;;;5090695;27;43919;-70
2022/07/31 00:28:02;;;;;;;1.43;1.43;;;25.00;62.80;;;;;;5090617;27;43881;-69
2022/07/31 00:30:30;;;;;;;1.40;1.40;;;24.90;63.40;;;;;;5071641;28;47054;-69
2022/07/31 00:32:58;;;;;;;1.33;1.33;;;24.80;63.50;;;;;;5071874;28;44991;-69
2022/07/31 00:35:27;;;;;;;1.40;1.40;;;24.90;63.50;;;;;;5095248;27;43813;-70
2022/07/31 00:37:57;;;;;;;1.40;1.40;;;25.00;63.10;;;;;;5091492;27;43955;-70
2022/07/31 00:40:49;;;;;;;1.30;1.30;;;25.10;62.60;;;;;;5109493;27;43885;-69
2022/07/31 00:43:18;;;;;;;1.40;1.40;;;25.20;62.20;;;;;;5109444;27;43439;-70
2022/07/31 00:45:49;;;;;;;1.53;1.53;;;25.20;62.20;;;;;;5109991;27;44021;-69
2022/07/31 00:48:25;;;;;;;1.50;1.40;;;25.10;62.20;;;;;;5110123;27;43486;-69
2022/07/31 00:50:55;;;;;;;1.50;1.50;;;25.10;62.90;;;;;;5109300;27;45057;-69
2022/07/31 00:53:24;;;;;;;1.50;1.50;;;25.00;62.90;;;;;;5109546;27;44043;-69
2022/07/31 00:55:53;;;;;;;1.30;1.30;;;25.00;62.90;;;;;;5109707;27;43984;-70
2022/07/31 00:58:23;;;;;;;1.40;1.40;;;24.90;63.10;;;;;;5091438;27;43526;-69
2022/07/31 01:00:51;;;;;;;1.20;1.20;;;24.80;63.60;;;;;;5091357;27;44600;-69
2022/07/31 01:03:20;;;;;;;1.43;1.43;;;24.80;63.60;;;;;;5090826;27;45997;-70
2022/07/31 01:05:50;;;;;;;1.40;1.40;;;24.80;63.60;;;;;;5090942;27;43408;-69
2022/07/31 01:08:21;;;;;;;1.30;1.30;;;24.80;63.70;;;;;;5091050;27;44036;-70
2022/07/31 01:10:54;;;;;;;1.27;1.27;;;24.70;64.10;;;;;;5090343;27;45562;-69
2022/07/31 01:13:30;;;;;;;1.20;1.20;;;24.80;64.20;;;;;;5109464;27;44042;-70
2022/07/31 01:15:59;;;;;;;1.47;1.47;;;24.80;63.70;;;;;;5051134;28;43392;-69
2022/07/31 01:18:29;;;;;;;1.30;1.30;;;25.00;63.40;;;;;;5065162;27;43957;-68
2022/07/31 01:21:02;;;;;;;1.30;1.30;;;25.10;62.90;;;;;;5090332;27;44998;-70
2022/07/31 01:23:53;;;;;;;1.33;1.27;;;25.20;62.60;;;;;;5089813;27;46190;-69
2022/07/31 01:26:43;;;;;;;1.50;1.50;;;25.20;62.60;;;;;;5080336;27;43886;-70
2022/07/31 01:29:21;;;;;;;1.33;1.33;;;25.10;63.00;;;;;;5052095;27;44235;-70
2022/07/31 01:31:52;;;;;;;1.30;1.30;;;25.00;63.20;;;;;;5089294;27;44710;-69
2022/07/31 01:34:24;;;;;;;1.23;1.23;;;25.00;63.10;;;;;;5070943;27;44846;-69
2022/07/31 01:37:00;;;;;;;1.10;1.10;;;24.90;63.20;;;;;;5070763;28;44009;-69
2022/07/31 01:39:30;;;;;;;1.30;1.30;;;24.80;63.70;;;;;;5071270;28;44047;-70
2022/07/31 01:42:03;;;;;;;1.23;1.23;;;24.80;64.00;;;;;;5070023;28;45507;-69
2022/07/31 01:44:37;;;;;;;1.30;1.30;;;24.80;63.90;;;;;;5070720;28;44627;-69
2022/07/31 01:47:05;;;;;;;1.20;1.20;;;24.70;63.60;;;;;;5070767;28;43408;-69
2022/07/31 01:49:33;;;;;;;1.20;1.20;;;24.70;64.10;;;;;;5071203;28;43864;-70
2022/07/31 01:52:02;;;;;;;1.37;1.37;;;24.70;64.40;;;;;;5070240;28;43913;-69
2022/07/31 01:54:32;;;;;;;1.30;1.30;;;24.80;64.40;;;;;;5070508;28;44086;-68
2022/07/31 01:57:01;;;;;;;1.40;1.40;;;24.90;63.90;;;;;;5070629;28;43933;-70
2022/07/31 01:59:29;;;;;;;1.20;1.20;;;25.00;63.50;;;;;;5070920;28;44205;-69
2022/07/31 02:02:09;;;;;;;1.20;1.20;;;25.10;63.00;;;;;;5070210;27;44900;-69
2022/07/31 02:04:40;;;;;;;1.40;1.40;;;25.10;62.80;;;;;;5088838;27;43915;-70
2022/07/31 02:07:08;;;;;;;1.17;1.17;;;25.10;62.80;;;;;;5070318;27;43971;-68
2022/07/31 02:09:39;;;;;;;1.27;1.27;;;25.00;63.30;;;;;;5089546;27;44009;-70
2022/07/31 02:12:29;;;;;;;1.23;1.23;;;25.00;63.60;;;;;;5070072;28;44008;-69
2022/07/31 02:15:02;;;;;;;1.30;1.30;;;24.90;63.40;;;;;;5070281;28;45092;-70
2022/07/31 02:17:32;;;;;;;1.30;1.30;;;24.90;63.50;;;;;;5070229;28;44035;-70
2022/07/31 02:20:22;;;;;;;1.20;1.20;;;24.80;64.00;;;;;;5084029;27;43932;-69
2022/07/31 02:22:54;;;;;;;1.20;1.20;;;24.80;64.40;;;;;;5069672;27;44156;-69
2022/07/31 02:25:22;;;;;;;1.20;1.20;;;24.90;64.10;;;;;;5070154;27;45009;-69
2022/07/31 02:27:50;;;;;;;1.10;1.10;;;25.00;63.60;;;;;;5070185;27;44062;-70
2022/07/31 02:30:26;;;;;;;1.30;1.30;;;25.10;63.10;;;;;;5070264;28;43998;-69
2022/07/31 02:33:09;;;;;;;1.10;1.10;;;25.20;62.80;;;;;;5069487;28;45611;-70
2022/07/31 02:35:38;;;;;;;1.10;1.10;;;25.20;62.80;;;;;;5068608;28;44803;-69
2022/07/31 02:38:14;;;;;;;1.10;1.10;;;25.10;62.80;;;;;;5070180;27;43401;-70
2022/07/31 02:40:51;;;;;;;1.30;1.30;;;25.00;63.50;;;;;;5070128;27;44203;-70
2022/07/31 02:43:19;;;;;;;1.43;1.43;;;25.00;63.60;;;;;;5087964;27;45122;-69
2022/07/31 02:45:47;;;;;;;1.30;1.30;;;24.90;63.50;;;;;;5088471;27;44321;-69
2022/07/31 02:48:16;;;;;;;1.10;1.10;;;24.90;63.60;;;;;;5070297;27;43929;-69
2022/07/31 02:50:48;;;;;;;1.10;1.10;;;24.80;64.20;;;;;;5071668;27;43856;-69
2022/07/31 02:53:16;;;;;;;1.10;1.10;;;24.80;64.30;;;;;;5069517;27;45710;-69
2022/07/31 02:55:44;;;;;;;1.30;1.30;;;24.80;64.90;;;;;;5069798;27;43960;-69
2022/07/31 02:58:13;;;;;;;1.30;1.30;;;24.70;64.00;;;;;;5088195;27;43900;-70
2022/07/31 03:00:41;;;;;;;1.10;1.10;;;24.70;64.70;;;;;;5088509;27;43964;-70
2022/07/31 03:03:09;;;;;;;1.20;1.20;;;24.70;64.70;;;;;;5069373;27;46072;-70
2022/07/31 03:05:39;;;;;;;1.30;1.30;;;24.80;64.50;;;;;;5069586;28;43431;-70
2022/07/31 03:08:07;;;;;;;1.10;1.10;;;24.90;64.10;;;;;;5087794;27;44042;-69
2022/07/31 03:10:38;;;;;;;1.10;1.10;;;25.00;63.60;;;;;;5069564;28;43427;-70
2022/07/31 03:13:06;;;;;;;1.20;1.20;;;25.10;63.30;;;;;;5087559;27;44840;-69
2022/07/31 03:15:34;;;;;;;1.37;1.37;;;25.10;63.30;;;;;;5069126;28;45320;-69
2022/07/31 03:18:04;;;;;;;1.20;1.20;;;25.10;63.20;;;;;;5069124;28;43985;-70
2022/07/31 03:20:42;;;;;;;1.10;1.10;;;25.00;63.80;;;;;;5069598;28;43556;-70
2022/07/31 03:23:13;;;;;;;1.20;1.20;;;24.90;63.80;;;;;;5069151;28;45525;-69
2022/07/31 03:25:51;;;;;;;1.10;1.10;;;24.90;63.80;;;;;;5069052;27;45965;-70
2022/07/31 03:28:20;;;;;;;1.10;1.10;;;24.80;63.80;;;;;;5069053;27;43901;-69
2022/07/31 03:30:51;;;;;;;1.43;1.43;;;24.80;64.40;;;;;;5087923;27;44025;-68
2022/07/31 03:33:25;;;;;;;1.10;1.10;;;24.80;64.50;;;;;;5068879;27;44057;-69
2022/07/31 03:35:54;;;;;;;1.00;1.00;;;24.70;64.30;;;;;;5087404;27;43809;-69
2022/07/31 03:38:22;;;;;;;1.23;1.23;;;24.70;64.30;;;;;;5069008;27;43932;-69
2022/07/31 03:41:17;;;;;;;1.00;1.00;;;24.70;65.00;;;;;;5068840;28;43971;-69
2022/07/31 03:43:46;;;;;;;1.13;1.13;;;24.70;65.00;;;;;;5068912;28;46679;-70
2022/07/31 03:46:21;;;;;;;1.20;1.20;;;24.80;64.60;;;;;;5075632;27;43869;-69
2022/07/31 03:48:52;;;;;;;1.10;1.10;;;24.90;64.20;;;;;;5066477;27;44055;-69
2022/07/31 03:51:24;;;;;;;1.20;1.20;;;25.10;63.70;;;;;;5069190;27;44004;-70
2022/07/31 03:53:52;;;;;;;1.40;1.40;;;25.10;63.30;;;;;;5068665;27;45938;-68
2022/07/31 03:56:47;;;;;;;1.20;1.20;;;25.10;63.30;;;;;;5069002;28;43834;-70
2022/07/31 03:59:17;;;;;;;1.20;1.20;;;25.10;63.60;;;;;;5069054;28;43972;-70
2022/07/31 04:01:50;;;;;;;1.10;1.10;;;25.00;63.80;;;;;;5069382;28;43968;-70
2022/07/31 04:04:47;;;;;;;1.37;1.37;;;25.00;64.00;;;;;;5068562;27;45438;-69
2022/07/31 04:07:17;;;;;;;1.00;1.00;;;24.90;63.90;;;;;;5086494;27;43405;-70
2022/07/31 04:09:47;;;;;;;1.33;1.33;;;24.80;64.30;;;;;;5087570;27;43994;-69
2022/07/31 04:12:15;;;;;;;1.20;1.20;;;24.80;64.50;;;;;;5069087;28;43511;-70
2022/07/31 04:14:43;;;;;;;1.27;1.27;;;24.80;64.60;;;;;;5079406;27;46016;-69
2022/07/31 04:17:11;;;;;;;1.10;1.10;;;24.70;64.20;;;;;;5088188;27;43959;-69
2022/07/31 04:19:39;;;;;;;1.27;1.27;;;24.70;64.80;;;;;;5107109;27;43908;-69
2022/07/31 04:22:07;;;;;;;1.13;1.13;;;24.70;65.10;;;;;;5088499;27;43881;-69
2022/07/31 04:24:39;;;;;;;1.10;1.10;;;24.70;64.90;;;;;;5087833;27;45765;-69
2022/07/31 04:27:28;;;;;;;1.10;1.10;;;24.80;64.50;;;;;;5088009;27;45000;-69
2022/07/31 04:29:59;;;;;;;1.20;1.20;;;25.00;64.10;;;;;;5105775;27;44042;-70
2022/07/31 04:32:27;;;;;;;1.00;1.00;;;25.10;63.70;;;;;;5087703;27;44079;-71
2022/07/31 04:35:02;;;;;;;1.10;1.10;;;25.10;63.40;;;;;;5083692;27;44125;-69
2022/07/31 04:37:30;;;;;;;1.13;1.13;;;25.10;63.50;;;;;;5087832;27;44007;-69
2022/07/31 04:40:04;;;;;;;1.30;1.30;;;25.00;63.80;;;;;;5087823;27;43974;-71
2022/07/31 04:42:35;;;;;;;1.13;1.13;;;25.00;64.10;;;;;;5088016;27;44135;-70
2022/07/31 04:45:06;;;;;;;1.30;1.30;;;24.90;64.10;;;;;;5074292;27;45640;-70
2022/07/31 04:47:35;;;;;;;1.10;1.10;;;24.90;64.10;;;;;;5106348;27;44022;-70
2022/07/31 04:50:04;;;;;;;1.20;1.20;;;24.80;64.60;;;;;;5071048;28;44026;-70
2022/07/31 04:52:41;;;;;;;1.20;1.20;;;24.80;64.90;;;;;;5091022;27;44052;-69
2022/07/31 04:55:13;;;;;;;1.20;1.20;;;24.80;64.70;;;;;;5087679;27;46404;-70
2022/07/31 04:57:41;;;;;;;1.17;1.17;;;24.90;64.30;;;;;;5106166;27;44017;-69
2022/07/31 05:00:12;;;;;;;1.20;1.20;;;25.10;64.10;;;;;;5110075;27;43401;-69
2022/07/31 05:02:41;;;;;;;1.13;1.13;;;25.10;63.60;;;;;;5085184;28;43588;-69
2022/07/31 05:05:11;;;;;;;1.20;1.20;;;25.10;63.50;;;;;;5071352;28;45637;-70
2022/07/31 05:07:42;;;;;;;1.20;1.20;;;25.00;63.60;;;;;;5085020;27;44821;-70
2022/07/31 05:13:12;;;;;;;1.20;1.20;;;24.90;64.20;;;;;;5110307;27;44014;-69
2022/07/31 05:15:43;;;;;;;1.20;1.20;;;24.90;64.10;;;;;;5091108;27;44732;-69
2022/07/31 05:18:11;;;;;;;1.10;1.10;;;24.80;64.30;;;;;;5072438;28;44945;-70
2022/07/31 05:20:58;;;;;;;1.30;1.30;;;24.80;65.00;;;;;;5098072;27;43556;-70
2022/07/31 05:24:00;;;;;;;1.20;1.20;;;24.80;64.80;;;;;;5087817;27;43978;-69
2022/07/31 05:26:40;;;;;;;1.20;1.20;;;24.90;64.40;;;;;;5090354;27;45604;-70
2022/07/31 05:29:08;;;;;;;1.20;1.20;;;25.00;63.90;;;;;;5071292;27;44288;-69
2022/07/31 05:31:39;;;;;;;1.20;1.20;;;25.00;63.50;;;;;;5071523;27;43423;-69
2022/07/31 05:34:28;;;;;;;1.30;1.30;;;25.00;63.70;;;;;;5078449;28;43874;-70
2022/07/31 05:36:59;;;;;;;1.10;1.10;;;24.90;64.00;;;;;;5070783;28;46005;-70
2022/07/31 05:39:32;;;;;;;1.10;1.10;;;24.90;64.10;;;;;;5070841;28;44134;-69
2022/07/31 05:42:21;;;;;;;1.00;1.00;;;24.80;64.00;;;;;;5089121;27;43390;-70
2022/07/31 05:45:11;;;;;;;1.47;1.47;;;24.80;64.10;;;;;;5071328;28;44006;-69
2022/07/31 05:47:40;;;;;;;1.40;1.20;;;24.70;64.70;;;;;;5070658;28;45757;-70
2022/07/31 05:50:09;;;;;;;1.23;1.23;;;24.70;64.70;;;;;;5070980;28;43472;-70
2022/07/31 05:52:38;;;;;;;1.20;1.20;;;24.70;64.50;;;;;;5071042;28;44042;-69
2022/07/31 05:55:15;;;;;;;1.10;1.10;;;24.70;64.70;;;;;;5077812;28;43972;-70
2022/07/31 05:58:05;;;;;;;1.10;1.10;;;24.70;65.20;;;;;;5088347;27;43995;-69
2022/07/31 06:00:33;;;;;;;1.20;1.20;;;24.70;65.10;;;;;;5070669;27;44812;-69
2022/07/31 06:03:01;;;;;;;1.20;1.20;;;24.80;64.70;;;;;;5070524;27;43894;-69
2022/07/31 06:05:48;;;;;;;1.20;1.20;;;24.90;64.40;;;;;;5086544;27;43871;-69
2022/07/31 06:08:15;;;;;;;1.23;1.23;;;25.00;63.80;;;;;;5070676;28;46804;-69
2022/07/31 06:10:49;;;;;;;1.17;1.17;;;25.10;63.60;;;;;;5070235;27;45507;-68
2022/07/31 06:13:18;;;;;;;1.10;1.10;;;25.00;63.30;;;;;;5070476;28;43891;-69
2022/07/31 06:15:48;;;;;;;1.23;1.23;;;25.00;63.80;;;;;;5070792;28;43495;-69
2022/07/31 06:18:16;;;;;;;1.30;1.30;;;24.90;64.10;;;;;;5070224;28;45898;-69
2022/07/31 06:20:48;;;;;;;1.10;1.10;;;24.80;64.00;;;;;;5070305;28;44182;-70
2022/07/31 06:23:18;;;;;;;1.20;1.20;;;24.80;64.00;;;;;;5060275;28;43988;-69
2022/07/31 06:26:15;;;;;;;1.10;1.10;;;24.80;64.40;;;;;;5067135;28;43843;-69
2022/07/31 06:28:46;;;;;;;1.20;1.20;;;24.70;64.80;;;;;;5086367;27;43683;-68
2022/07/31 06:31:17;;;;;;;1.30;1.30;;;24.80;64.70;;;;;;5070772;28;44858;-69
2022/07/31 06:33:45;;;;;;;1.10;1.10;;;24.90;64.40;;;;;;5070293;28;43893;-70
2022/07/31 06:36:16;;;;;;;1.23;1.23;;;25.00;64.00;;;;;;5070702;28;43429;-69
2022/07/31 06:38:56;;;;;;;1.37;1.37;;;25.10;63.70;;;;;;5082055;27;44631;-69
2022/07/31 06:41:45;;;;;;;1.10;1.10;;;25.00;63.40;;;;;;5087977;27;43986;-69
2022/07/31 06:44:30;;;;;;;1.07;1.07;;;25.00;63.60;;;;;;5085068;27;43975;-70
2022/07/31 06:47:16;;;;;;;1.30;1.30;;;24.90;64.10;;;;;;5100551;27;43946;-70
2022/07/31 06:50:05;;;;;;;1.30;1.30;;;24.90;64.20;;;;;;5089086;27;43971;-69
2022/07/31 06:52:37;;;;;;;1.20;1.20;;;24.80;64.00;;;;;;5089353;27;45929;-70
2022/07/31 06:55:08;;;;;;;1.13;1.13;;;24.70;64.40;;;;;;5089355;27;44027;-69
2022/07/31 06:57:39;;;;;;;1.20;1.20;;;24.70;64.90;;;;;;5076436;27;43968;-70
2022/07/31 07:00:09;;;;;;;1.40;1.40;;;24.80;64.80;;;;;;5070827;28;44690;-69
2022/07/31 07:02:47;;;;;;;1.10;1.10;;;24.90;64.50;;;;;;5069899;27;45195;-69
2022/07/31 07:05:15;;;;;;;1.27;1.27;;;25.00;64.00;;;;;;5069664;27;43441;-69
2022/07/31 07:07:45;;;;;;;1.20;1.20;;;25.00;63.80;;;;;;5102216;27;44186;-69
2022/07/31 07:10:14;;;;;;;1.10;1.10;;;25.00;63.80;;;;;;5088615;27;45660;-70
2022/07/31 07:13:04;;;;;;;1.20;1.20;;;24.90;64.00;;;;;;5087576;27;44082;-68
2022/07/31 07:15:37;;;;;;;1.20;1.20;;;24.90;64.50;;;;;;5086919;27;43974;-69
2022/07/31 07:18:08;;;;;;;1.17;1.17;;;24.80;64.30;;;;;;5089596;27;43934;-69
2022/07/31 07:21:03;;;;;;;1.20;1.20;;;24.80;64.40;;;;;;5096867;27;43822;-70
2022/07/31 07:23:34;;;;;;;1.03;1.03;;;24.70;64.80;;;;;;5080171;27;45129;-69
2022/07/31 07:26:19;;;;;;;1.00;1.00;;;24.70;65.20;;;;;;5084884;27;43996;-69
2022/07/31 07:28:47;;;;;;;1.03;1.03;;;24.70;64.80;;;;;;5069965;28;43447;-70
2022/07/31 07:31:16;;;;;;;1.00;1.00;;;24.80;64.60;;;;;;5087522;27;44710;-69
2022/07/31 07:33:44;;;;;;;1.10;1.10;;;25.00;64.20;;;;;;5088080;27;43994;-69
2022/07/31 07:36:15;;;;;;;1.17;1.17;;;25.00;64.10;;;;;;5069247;28;43967;-70
2022/07/31 07:39:00;;;;;;;1.20;1.20;;;25.00;64.10;;;;;;5083325;27;44012;-69
2022/07/31 07:41:33;;;;;;;1.13;1.13;;;24.90;64.30;;;;;;5088106;27;44047;-69
2022/07/31 07:44:04;;;;;;;1.00;1.00;;;24.80;64.60;;;;;;5074085;27;44078;-69
2022/07/31 07:46:35;;;;;;;1.23;1.23;;;24.80;64.70;;;;;;5070816;27;43874;-69
2022/07/31 07:49:04;;;;;;;1.20;1.20;;;24.80;64.60;;;;;;5088982;27;44182;-69
2022/07/31 07:51:51;;;;;;;1.20;1.20;;;24.70;65.30;;;;;;5104213;27;44010;-69
2022/07/31 07:54:39;;;;;;;1.10;1.10;;;24.70;65.20;;;;;;5096551;27;43956;-69
2022/07/31 07:57:27;;;;;;;1.20;1.20;;;24.70;65.10;;;;;;5085242;27;44013;-69
2022/07/31 08:00:15;;;;;;;1.10;1.10;;;24.60;64.80;;;;;;5085081;27;43975;-70
2022/07/31 08:02:44;;;;;;;1.00;1.00;;;24.60;65.70;;;;;;5106742;27;43949;-69
2022/07/31 08:05:34;;;;;;;1.30;1.30;;;24.60;65.60;;;;;;5081319;27;45310;-70
2022/07/31 08:08:03;;;;;;;1.20;1.20;;;24.70;65.10;;;;;;5090965;27;43964;-70
2022/07/31 08:11:02;;;;;;;1.20;1.20;;;24.80;64.80;;;;;;5046671;27;43966;-69
2022/07/31 08:13:41;;;;;;;1.23;1.23;;;25.00;64.30;;;;;;5077000;27;46275;-69
2022/07/31 08:16:35;;;;;;;1.10;1.10;;;25.00;63.90;;;;;;5103763;27;43931;-70
2022/07/31 08:19:05;;;;;;;1.10;1.10;;;25.00;64.00;;;;;;5088136;27;43960;-69
2022/07/31 08:21:35;;;;;;;0.93;0.93;;;25.00;64.10;;;;;;5069408;28;43983;-69
2022/07/31 08:24:04;;;;;;;1.10;1.10;;;24.90;64.60;;;;;;5068621;28;44857;-69
2022/07/31 08:29:15;;;;;;;1.10;1.10;;;24.80;64.60;;;;;;5067926;27;43973;-70
2022/07/31 08:31:58;;;;;;;1.00;1.00;;;24.70;64.70;;;;;;5086030;27;43496;-69
2022/07/31 08:34:45;;;;;;;1.00;1.00;;;24.70;65.40;;;;;;5107288;27;43846;-69
2022/07/31 08:37:17;;;;;;;1.13;1.13;;;24.70;65.00;;;;;;5078134;27;44006;-69
2022/07/31 08:40:08;;;;;;;1.10;1.10;;;24.80;64.60;;;;;;5091234;27;43522;-69
2022/07/31 08:42:40;;;;;;;1.00;1.00;;;24.90;64.20;;;;;;5110257;27;43439;-69
2022/07/31 08:45:09;;;;;;;1.10;1.10;;;25.00;64.10;;;;;;5068304;28;47006;-69
2022/07/31 08:47:46;;;;;;;1.67;1.30;;;24.90;64.00;;;;;;5065087;28;44072;-69
2022/07/31 08:50:19;;;;;;;1.40;1.40;;;24.90;63.00;;;;;;5062730;27;43948;-70
2022/07/31 08:52:49;;;;;;;6.10;1.37;;;24.80;61.80;;;;;;5072127;27;44018;-69
2022/07/31 08:55:39;;;;;;;1.50;1.30;;;24.80;62.40;;;;;;5068871;27;44422;-69
2022/07/31 08:58:27;;;;;;;1.43;1.33;;;24.80;62.80;;;;;;5071498;28;44094;-70
2022/07/31 09:00:55;;;;;;;1.40;1.40;;;24.70;63.20;;;;;;5061679;28;44093;-69
2022/07/31 09:03:23;;;;;;;1.30;1.30;;;24.70;63.80;;;;;;5068232;28;43985;-68
2022/07/31 09:05:57;;;;;;;1.67;1.20;;;24.70;63.80;;;;;;5062270;27;45553;-69
2022/07/31 09:08:26;;;;;;;1.33;1.20;;;24.80;64.30;;;;;;5072236;27;44656;-70
2022/07/31 09:11:02;;;;;;;1.20;1.20;;;25.00;63.30;;;;;;5091036;27;44023;-69
2022/07/31 09:13:36;;;;;;;1.53;1.43;;;25.10;62.80;;;;;;5091208;27;43930;-69
2022/07/31 09:16:21;;;;;;;1.27;1.27;;;25.20;62.60;;;;;;5090732;27;46918;-70
2022/07/31 09:18:58;;;;;;;1.13;1.10;;;25.10;62.70;;;;;;5091002;27;45445;-69
2022/07/31 09:21:38;;;;;;;1.30;1.30;;;25.10;63.00;;;;;;5109361;27;43994;-70
2022/07/31 09:24:10;;;;;;;1.30;1.30;;;25.00;63.40;;;;;;5090911;27;43994;-69
2022/07/31 09:26:39;;;;;;;1.30;1.30;;;24.90;63.60;;;;;;5109490;27;44051;-70
2022/07/31 09:29:11;;;;;;;1.40;1.30;;;24.80;63.60;;;;;;5090640;27;44872;-69
2022/07/31 09:31:40;;;;;;;1.40;1.40;;;24.80;63.80;;;;;;5088474;27;44029;-69
2022/07/31 09:34:46;;;;;;;1.27;1.27;;;24.70;64.30;;;;;;5089837;27;44056;-70
2022/07/31 09:37:19;;;;;;;1.33;1.20;;;24.70;64.40;;;;;;5071309;27;45792;-69
2022/07/31 09:40:34;;;;;;;1.40;1.40;;;24.70;64.30;;;;;;5046091;28;43865;-69
2022/07/31 09:43:28;;;;;;;1.30;1.30;;;24.60;64.70;;;;;;5045970;28;44136;-69
2022/07/31 09:45:59;;;;;;;1.60;1.20;;;24.60;64.50;;;;;;5060497;28;43551;-69
2022/07/31 09:48:27;;;;;;;1.37;1.37;;;24.70;64.20;;;;;;5070782;28;43987;-70
2022/07/31 09:50:57;;;;;;;1.37;1.37;;;24.80;63.70;;;;;;5094683;27;43361;-69
2022/07/31 09:53:38;;;;;;;1.13;1.13;;;24.90;63.20;;;;;;5090409;27;43969;-69
2022/07/31 09:56:31;;;;;;;1.40;1.40;;;25.00;62.90;;;;;;5109035;27;43951;-69
2022/07/31 09:59:00;;;;;;;1.40;1.40;;;25.00;62.90;;;;;;5079552;28;46738;-69
2022/07/31 10:01:30;;;;;;;1.30;1.30;;;25.00;63.10;;;;;;5075037;27;44073;-69
2022/07/31 10:03:59;;;;;;;1.33;1.20;;;24.90;63.40;;;;;;5085642;28;43360;-70
2022/07/31 10:06:28;;;;;;;1.10;1.10;;;24.90;63.40;;;;;;5071089;28;44044;-69
2022/07/31 10:08:57;;;;;;;1.40;1.30;;;24.80;63.40;;;;;;5070429;28;43996;-69
2022/07/31 10:11:25;;;;;;;2.00;1.37;;;24.80;63.40;;;;;;5085520;27;43766;-69
2022/07/31 10:14:13;;;;;;;1.40;1.40;;;24.70;63.90;;;;;;5071267;27;43416;-69
2022/07/31 10:16:41;;;;;;;1.30;1.30;;;24.70;64.00;;;;;;5090014;27;44011;-69
2022/07/31 10:19:27;;;;;;;1.40;1.40;;;24.70;63.80;;;;;;5095070;27;43957;-69
2022/07/31 10:22:14;;;;;;;1.53;1.53;;;24.60;63.80;;;;;;5098789;27;43369;-69
2022/07/31 10:24:46;;;;;;;1.30;1.30;;;24.60;64.30;;;;;;5108805;27;43323;-69
2022/07/31 10:27:15;;;;;;;1.60;1.50;;;24.60;64.10;;;;;;5090734;27;44038;-68
2022/07/31 10:29:54;;;;;;;1.50;1.50;;;24.70;63.50;;;;;;5071872;27;45177;-69
2022/07/31 10:32:24;;;;;;;1.93;1.83;;;24.80;63.00;;;;;;5088540;27;43467;-69
2022/07/31 10:35:11;;;;;;;1.50;1.50;;;25.00;62.60;;;;;;5085859;27;43921;-70
2022/07/31 10:38:07;;;;;;;1.43;1.40;;;25.00;62.40;;;;;;5084265;27;44069;-68
2022/07/31 10:40:58;;;;;;;1.53;1.43;;;25.00;62.60;;;;;;5069417;28;44173;-70
2022/07/31 10:43:28;;;;;;;1.57;1.47;;;24.90;63.00;;;;;;5106253;27;43682;-70
2022/07/31 10:46:26;;;;;;;1.67;1.67;;;24.80;63.00;;;;;;5089978;27;43894;-69
2022/07/31 10:49:38;;;;;;;1.40;1.40;;;24.80;63.00;;;;;;5081527;27;44605;-69
2022/07/31 10:52:32;;;;;;;1.33;1.33;;;24.70;63.30;;;;;;5089286;27;45961;-69
2022/07/31 10:55:24;;;;;;;3.00;1.50;;;24.70;63.80;;;;;;5106555;27;44122;-69
2022/07/31 10:58:29;;;;;;;1.80;1.53;;;24.70;63.80;;;;;;5085567;27;43510;-69
2022/07/31 11:01:05;;;;;;;1.57;1.50;;;24.60;63.60;;;;;;5051829;27;44151;-69
2022/07/31 11:03:39;;;;;;;2.03;1.70;;;24.60;63.50;;;;;;5102461;27;44074;-69
2022/07/31 11:06:17;;;;;;;2.13;2.03;;;24.60;61.80;;;;;;5069749;27;44066;-69
2022/07/31 11:08:54;;;;;;;3.07;1.77;;;24.70;60.50;;;;;;5074042;27;44003;-70
2022/07/31 11:11:48;;;;;;;1.77;1.67;;;24.80;60.20;;;;;;5087967;27;44089;-69
2022/07/31 11:14:47;;;;;;;1.80;1.70;;;24.90;60.40;;;;;;5101466;27;43905;-69
2022/07/31 11:17:35;;;;;;;1.70;1.70;;;25.00;60.20;;;;;;5103646;27;43978;-68
2022/07/31 11:20:31;;;;;;;2.30;1.70;;;25.00;60.60;;;;;;5087941;27;43960;-69
2022/07/31 11:23:00;;;;;;;3.70;1.53;;;24.90;61.00;;;;;;5107119;27;43890;-70
2022/07/31 11:25:29;;;;;;;1.73;1.60;;;24.80;61.30;;;;;;5107616;27;43916;-69
2022/07/31 11:28:09;;;;;;;2.03;1.60;;;24.80;61.40;;;;;;5107452;27;43991;-69
2022/07/31 11:30:49;;;;;;;1.40;1.40;;;24.70;61.30;;;;;;5094111;27;43983;-69
2022/07/31 11:33:37;;;;;;;1.60;1.50;;;24.70;62.00;;;;;;5088580;27;43948;-69
2022/07/31 11:36:13;;;;;;;1.97;1.67;;;24.70;62.20;;;;;;5087539;27;44122;-69
2022/07/31 11:38:42;;;;;;;3.07;1.80;;;24.60;62.10;;;;;;5087865;27;43900;-69
2022/07/31 11:41:12;;;;;;;1.90;1.80;;;24.60;61.60;;;;;;5087258;27;44035;-68
2022/07/31 11:43:43;;;;;;;1.60;1.60;;;24.60;62.60;;;;;;5081749;27;43955;-69
2022/07/31 11:46:13;;;;;;;1.63;1.53;;;24.60;62.70;;;;;;5081394;27;43624;-69
2022/07/31 11:48:41;;;;;;;2.17;1.97;;;24.60;62.20;;;;;;5101470;27;43766;-69
2022/07/31 11:51:17;;;;;;;1.97;1.87;;;24.70;60.00;;;;;;5107471;27;43410;-68
2022/07/31 11:53:45;;;;;;;1.97;1.80;;;24.80;58.60;;;;;;5107513;27;43478;-70
2022/07/31 11:56:25;;;;;;;1.83;1.73;;;24.90;58.70;;;;;;5107113;27;43848;-69
2022/07/31 11:59:03;;;;;;;3.03;1.80;;;25.00;58.80;;;;;;5106951;27;43939;-69
2022/07/31 12:02:02;;;;;;;1.80;1.70;;;24.90;59.50;;;;;;5088105;27;44000;-69
2022/07/31 12:04:30;;;;;;;1.73;1.70;;;24.80;60.10;;;;;;5105420;27;44063;-68
2022/07/31 12:06:58;;;;;;;3.13;2.10;;;24.80;60.30;;;;;;5102933;27;43918;-69
2022/07/31 12:09:26;;;;;;;4.27;1.87;;;24.80;60.60;;;;;;5089618;27;44305;-69
2022/07/31 12:12:14;;;;;;;2.10;1.60;;;24.70;60.80;;;;;;5091282;27;43947;-70
2022/07/31 12:14:42;;;;;;;2.93;1.80;;;24.70;61.40;;;;;;5091352;27;43397;-69
2022/07/31 12:17:19;;;;;;;4.17;2.07;;;24.70;61.90;;;;;;5090733;27;44061;-69
2022/07/31 12:19:47;;;;;;;4.47;1.80;;;24.70;61.60;;;;;;5072836;28;43400;-69
2022/07/31 12:22:18;;;;;;;1.57;1.57;;;24.80;60.50;;;;;;5090724;27;43755;-68
2022/07/31 12:24:47;;;;;;;1.97;1.70;;;25.00;60.30;;;;;;5084856;27;43380;-69
2022/07/31 12:27:15;;;;;;;2.07;1.90;;;25.00;60.00;;;;;;5084622;27;43596;-69
2022/07/31 12:29:43;;;;;;;3.93;1.73;;;25.00;60.10;;;;;;5065699;28;46110;-68
2022/07/31 12:32:13;;;;;;;3.20;1.50;;;25.00;60.40;;;;;;5084110;27;44016;-70
2022/07/31 12:34:41;;;;;;;1.90;1.80;;;24.90;60.80;;;;;;5083048;27;43504;-69
2022/07/31 12:37:10;;;;;;;1.80;1.70;;;24.90;61.00;;;;;;5090634;27;43924;-70
2022/07/31 12:39:39;;;;;;;3.17;1.83;;;24.80;61.10;;;;;;5071983;27;44407;-69
2022/07/31 12:42:28;;;;;;;2.80;1.70;;;24.80;61.10;;;;;;5089853;27;43404;-68
2022/07/31 12:44:59;;;;;;;1.60;1.60;;;24.70;61.70;;;;;;5090994;27;43901;-69
2022/07/31 12:47:46;;;;;;;1.60;1.60;;;24.70;61.70;;;;;;5090746;27;44031;-69
2022/07/31 12:50:22;;;;;;;1.80;1.70;;;24.70;61.60;;;;;;5084367;27;44001;-69
2022/07/31 12:52:50;;;;;;;1.90;1.80;;;24.70;61.50;;;;;;5097506;27;43959;-70
2022/07/31 12:55:18;;;;;;;1.80;1.70;;;24.60;62.30;;;;;;5103192;27;43878;-70
2022/07/31 12:57:46;;;;;;;1.70;1.60;;;24.70;62.20;;;;;;5097687;27;43614;-69
2022/07/31 13:00:21;;;;;;;1.70;1.60;;;24.70;61.80;;;;;;5109976;27;43787;-69
2022/07/31 13:02:51;;;;;;;1.90;1.80;;;24.80;61.40;;;;;;5109773;27;44043;-69
2022/07/31 13:05:19;;;;;;;2.53;1.80;;;24.90;62.00;;;;;;5110177;27;43962;-69
2022/07/31 13:07:47;;;;;;;2.20;1.40;;;25.00;61.10;;;;;;5110033;27;43946;-69
2022/07/31 13:10:18;;;;;;;3.37;1.50;;;25.00;61.00;;;;;;5109784;27;43925;-69
2022/07/31 13:12:51;;;;;;;1.57;1.50;;;25.00;61.20;;;;;;5109723;27;43897;-69
2022/07/31 13:15:21;;;;;;;1.43;1.40;;;24.90;61.50;;;;;;5110027;27;43920;-70
2022/07/31 13:17:51;;;;;;;2.57;2.13;;;24.90;62.20;;;;;;5109481;27;44029;-69
2022/07/31 13:20:19;;;;;;;1.60;1.60;;;24.90;61.60;;;;;;5108425;27;44055;-69
2022/07/31 13:22:47;;;;;;;1.60;1.60;;;24.80;62.10;;;;;;5109669;27;43972;-69
2022/07/31 13:25:15;;;;;;;1.50;1.50;;;24.80;62.20;;;;;;5109808;27;44066;-70
2022/07/31 13:27:43;;;;;;;1.50;1.50;;;24.80;62.40;;;;;;5109968;27;43990;-69
2022/07/31 13:30:12;;;;;;;1.50;1.40;;;24.70;62.20;;;;;;5109373;27;43401;-69
2022/07/31 13:32:40;;;;;;;1.80;1.70;;;24.70;62.00;;;;;;5108926;27;44087;-68